Terminal Aerodrome Forecast
Issued by NWS Wilmington, OH

Current Version | Previous Version | Graphics & Text | Print | Product List | Glossary On
Versions: 1 2 3 4 5 6 7 8 9 10 11 12 13 14
661
FTUS41 KILN 102320
TAFDAY
TAF
KDAY 102320Z 1100/1124 25012KT P6SM FEW025 BKN035
     FM110300 27008KT P6SM SCT025 SCT035
     FM111500 29010KT P6SM BKN025
     FM112300 28004KT P6SM SCT025=

USA.gov is the U.S. government's official web portal to all federal, state and local government web resources and services.